Island Falls, Canada
Current Conditions -  °F | °C
As of 5:46 AM on Thursday 23 Oct 2014 (Local Time) from CYFO Reporting Station
Drizzle Drizzle  
Wind Chill: 37°   Ceiling: 300
Heat Index: 43°   Visibility: 12mi
Dew Point: 43°   Wind: 9mph
Humidity: 100%   Direction: 10°N
Pressure: 29.71"   Gusts: NA
Location:  55.53°N, 102.33°W
Report Text: CYFO 231146Z 01008KT 12SM -DZ OVC003 06/06 A2971 RMK SC8 BR SLP073
Loading
Personal Weather Stations






























Interactive Weather Map
Tropical Storm Tracking
New forecast layout! Learn more

10-Day Weather Forecast

Advertisements
Track Severe Weather on mobile